createdAt,value
2017-08-20T00:00:39.877Z,3.00
2017-08-20T00:03:07.683Z,3.60
2017-08-20T00:05:35.547Z,3.50
2017-08-20T00:08:03.411Z,4.10
2017-08-20T00:10:31.275Z,3.90
2017-08-20T00:12:59.138Z,4.40
2017-08-20T00:15:27.002Z,4.47
2017-08-20T00:17:54.867Z,4.00
2017-08-20T00:20:22.730Z,3.83
2017-08-20T00:22:50.594Z,4.00
2017-08-20T00:25:18.457Z,3.65
2017-08-20T00:27:46.321Z,4.10
2017-08-20T00:30:14.185Z,5.07
2017-08-20T00:32:42.049Z,4.82
2017-08-20T00:35:09.916Z,4.70
2017-08-20T00:37:37.645Z,5.07
2017-08-20T00:40:05.435Z,5.12
2017-08-20T00:42:33.301Z,4.62
2017-08-20T00:45:01.090Z,4.93
2017-08-20T00:47:29.643Z,4.72
2017-08-20T00:49:57.506Z,5.07
2017-08-20T00:52:25.257Z,5.00
2017-08-20T00:54:53.028Z,5.43
2017-08-20T00:57:20.893Z,5.03
2017-08-20T00:59:48.714Z,5.22
2017-08-20T01:02:16.518Z,5.45
2017-08-20T01:04:44.388Z,4.57
2017-08-20T01:07:12.247Z,4.72
2017-08-20T01:09:40.109Z,5.22
2017-08-20T01:12:07.871Z,4.28
2017-08-20T01:14:35.734Z,4.82
2017-08-20T01:17:03.564Z,4.75
2017-08-20T01:19:31.317Z,4.40
2017-08-20T01:21:59.225Z,4.32
2017-08-20T01:24:27.088Z,4.55
2017-08-20T01:26:54.953Z,4.37
2017-08-20T01:29:22.815Z,4.85
2017-08-20T01:31:50.679Z,4.97
2017-08-20T01:34:18.458Z,5.35
2017-08-20T01:36:46.409Z,4.40
2017-08-20T01:39:14.277Z,4.43
2017-08-20T01:41:42.138Z,5.53
2017-08-20T01:44:09.919Z,5.53
2017-08-20T01:46:37.762Z,4.40
2017-08-20T01:49:05.625Z,4.90
2017-08-20T01:51:33.344Z,5.12
2017-08-20T01:54:01.250Z,5.07
2017-08-20T01:56:29.077Z,5.32
2017-08-20T01:58:57.187Z,5.87
2017-08-20T02:01:25.048Z,5.22
2017-08-20T02:03:52.909Z,5.75
2017-08-20T02:06:20.776Z,7.05
2017-08-20T02:08:48.550Z,6.20
2017-08-20T02:11:16.399Z,5.40
2017-08-20T02:13:44.263Z,5.45
2017-08-20T02:16:11.980Z,6.25
2017-08-20T02:18:39.787Z,7.07
2017-08-20T02:21:07.546Z,5.57
2017-08-20T02:23:35.412Z,5.82
2017-08-20T02:26:03.148Z,5.95
2017-08-20T02:28:30.934Z,6.85
2017-08-20T02:30:58.799Z,6.50
2017-08-20T02:33:26.663Z,6.53
2017-08-20T02:35:54.526Z,6.90
2017-08-20T02:38:22.393Z,6.65
2017-08-20T02:40:50.357Z,7.35
2017-08-20T02:43:18.223Z,6.70
2017-08-20T02:45:45.942Z,6.35
2017-08-20T02:48:13.746Z,7.15
2017-08-20T02:50:41.608Z,7.25
2017-08-20T02:53:09.471Z,8.27
2017-08-20T02:55:37.298Z,7.90
2017-08-20T02:58:05.097Z,8.32
2017-08-20T03:00:32.960Z,7.50
2017-08-20T03:03:00.826Z,8.75
2017-08-20T03:05:28.690Z,9.20
2017-08-20T03:07:56.552Z,7.85
2017-08-20T03:10:24.416Z,8.40
2017-08-20T03:12:52.383Z,8.30
2017-08-20T03:15:20.246Z,8.15
2017-08-20T03:17:48.113Z,8.55
2017-08-20T03:20:15.975Z,7.72
2017-08-20T03:22:43.839Z,6.55
2017-08-20T03:25:11.701Z,8.15
2017-08-20T03:27:39.566Z,7.30
2017-08-20T03:30:07.292Z,7.20
2017-08-20T03:32:35.191Z,8.18
2017-08-20T03:35:03.054Z,7.12
2017-08-20T03:37:30.920Z,7.68
2017-08-20T03:39:58.783Z,8.38
2017-08-20T03:42:26.649Z,8.80
2017-08-20T03:44:54.511Z,9.85
2017-08-20T03:47:22.373Z,9.25
2017-08-20T03:49:50.240Z,9.63
2017-08-20T03:52:18.103Z,9.32
2017-08-20T03:54:45.965Z,8.70
2017-08-20T03:57:13.830Z,8.90
2017-08-20T03:59:41.563Z,10.68
2017-08-20T04:02:09.529Z,9.07
2017-08-20T04:04:37.281Z,8.63
2017-08-20T04:07:05.083Z,8.55
2017-08-20T04:09:32.945Z,9.00
2017-08-20T04:12:00.809Z,8.85
2017-08-20T04:14:28.672Z,9.60
2017-08-20T04:16:56.535Z,7.90
2017-08-20T04:19:24.401Z,8.40
2017-08-20T04:21:52.264Z,8.40
2017-08-20T04:24:20.127Z,7.60
2017-08-20T04:26:48.298Z,7.40
2017-08-20T04:29:16.163Z,8.38
2017-08-20T04:31:44.026Z,9.30
2017-08-20T04:34:11.889Z,8.45
2017-08-20T04:36:39.761Z,6.95
2017-08-20T04:39:07.616Z,8.60
2017-08-20T04:41:35.482Z,8.13
2017-08-20T04:44:03.347Z,7.70
2017-08-20T04:46:31.174Z,7.90
2017-08-20T04:48:58.971Z,7.68
2017-08-20T04:51:26.834Z,7.78
2017-08-20T04:53:54.697Z,8.30
2017-08-20T04:56:22.564Z,7.50
2017-08-20T04:58:50.429Z,9.30
2017-08-20T05:01:18.187Z,7.45
2017-08-20T05:03:46.051Z,7.45
2017-08-20T05:06:13.915Z,8.43
2017-08-20T05:08:41.780Z,9.25
2017-08-20T05:11:09.643Z,8.30
2017-08-20T05:13:37.507Z,8.32
2017-08-20T05:16:05.370Z,8.60
2017-08-20T05:18:33.198Z,7.93
2017-08-20T05:21:00.995Z,8.85
2017-08-20T05:23:28.861Z,9.30
2017-08-20T05:25:56.724Z,7.47
2017-08-20T05:28:24.588Z,8.65
2017-08-20T05:30:52.452Z,8.60
2017-08-20T05:33:20.183Z,8.70
2017-08-20T05:35:48.077Z,8.52
2017-08-20T05:38:15.940Z,7.60
2017-08-20T05:40:43.806Z,9.60
2017-08-20T05:43:11.669Z,8.05
2017-08-20T05:45:39.533Z,9.32
2017-08-20T05:48:07.398Z,8.07
2017-08-20T05:50:35.159Z,8.80
2017-08-20T05:53:03.021Z,6.95
2017-08-20T05:55:30.885Z,7.50
2017-08-20T05:57:58.749Z,7.82
2017-08-20T06:00:26.613Z,6.25
2017-08-20T06:02:54.477Z,7.00
2017-08-20T06:05:22.342Z,6.62
2017-08-20T06:07:50.070Z,7.50
2017-08-20T06:10:17.867Z,7.60
2017-08-20T06:12:45.731Z,7.85
2017-08-20T06:15:13.499Z,6.60
2017-08-20T06:17:41.355Z,7.07
2017-08-20T06:20:09.179Z,6.45
2017-08-20T06:22:36.979Z,6.57
2017-08-20T06:25:04.945Z,6.10
2017-08-20T06:27:32.809Z,6.37
2017-08-20T06:30:00.586Z,5.65
2017-08-20T06:32:28.435Z,5.05
2017-08-20T06:34:56.299Z,3.50
2017-08-20T06:37:24.162Z,4.57
2017-08-20T06:39:52.948Z,5.10
2017-08-20T06:42:21.131Z,4.75
2017-08-20T06:44:48.983Z,3.95
2017-08-20T06:47:16.848Z,5.80
2017-08-20T06:49:44.713Z,4.50
2017-08-20T06:52:12.441Z,5.62
2017-08-20T06:54:40.339Z,5.50
2017-08-20T06:57:08.201Z,5.45
2017-08-20T06:59:36.065Z,4.90
2017-08-20T07:02:03.927Z,4.12
2017-08-20T07:04:31.791Z,5.40
2017-08-20T07:06:59.614Z,3.83
2017-08-20T07:09:27.416Z,4.70
2017-08-20T07:11:55.282Z,3.87
2017-08-20T07:14:23.106Z,3.97
2017-08-20T07:16:50.911Z,3.60
2017-08-20T07:19:18.768Z,3.62
2017-08-20T07:21:46.634Z,3.25
2017-08-20T07:24:14.500Z,3.40
2017-08-20T07:26:42.363Z,2.80
2017-08-20T07:29:10.225Z,3.25
2017-08-20T07:31:38.090Z,2.83
2017-08-20T07:34:05.953Z,2.80
2017-08-20T07:36:33.714Z,2.60
2017-08-20T07:39:01.579Z,3.00
2017-08-20T07:41:29.443Z,2.97
2017-08-20T07:43:57.305Z,3.60
2017-08-20T07:46:25.150Z,2.78
2017-08-20T07:48:53.036Z,4.18
2017-08-20T07:51:20.899Z,3.10
2017-08-20T07:53:48.761Z,3.10
2017-08-20T07:56:16.626Z,3.15
2017-08-20T07:58:44.489Z,3.42
2017-08-20T08:01:12.969Z,2.87
2017-08-20T08:03:40.839Z,2.25
2017-08-20T08:06:08.593Z,2.60
2017-08-20T08:08:36.458Z,3.00
2017-08-20T08:11:04.321Z,2.80
2017-08-20T08:13:32.188Z,3.28
2017-08-20T08:16:00.151Z,2.40
2017-08-20T08:18:28.014Z,3.17
2017-08-20T08:20:55.953Z,2.78
2017-08-20T08:23:23.687Z,2.40
2017-08-20T08:25:51.426Z,2.45
2017-08-20T08:28:20.086Z,3.30
2017-08-20T08:30:47.949Z,2.33
2017-08-20T08:33:15.812Z,2.30
2017-08-20T08:35:43.714Z,2.30
2017-08-20T08:38:12.258Z,2.37
2017-08-20T08:40:40.123Z,2.58
2017-08-20T08:43:07.985Z,2.35
2017-08-20T08:45:35.849Z,2.97
2017-08-20T08:48:03.610Z,2.70
2017-08-20T08:50:31.373Z,2.47
2017-08-20T08:52:59.234Z,3.25
2017-08-20T08:55:27.059Z,3.10
2017-08-20T08:57:54.846Z,2.83
2017-08-20T09:00:22.622Z,3.25
2017-08-20T09:02:50.485Z,2.40
2017-08-20T09:05:18.315Z,2.60
2017-08-20T09:07:46.111Z,3.17
2017-08-20T09:10:13.975Z,2.62
2017-08-20T09:12:41.838Z,3.97
2017-08-20T09:15:09.604Z,2.50
2017-08-20T09:17:37.362Z,2.83
2017-08-20T09:20:05.087Z,2.83
2017-08-20T09:22:32.987Z,2.55
2017-08-20T09:25:00.854Z,2.40
2017-08-20T09:27:28.722Z,3.10
2017-08-20T09:29:56.579Z,2.50
2017-08-20T09:32:24.316Z,2.25
2017-08-20T09:34:52.115Z,2.40
2017-08-20T09:37:19.967Z,2.83
2017-08-20T09:39:47.726Z,2.37
2017-08-20T09:42:15.596Z,2.97
2017-08-20T09:44:43.323Z,2.75
2017-08-20T09:47:11.218Z,2.55
2017-08-20T09:49:39.045Z,2.42
2017-08-20T09:52:06.843Z,2.20
2017-08-20T09:54:34.705Z,2.45
2017-08-20T09:57:02.569Z,2.40
2017-08-20T09:59:30.433Z,3.97
2017-08-20T10:01:58.276Z,2.85
2017-08-20T10:04:26.062Z,2.33
2017-08-20T10:06:53.922Z,1.75
2017-08-20T10:09:21.640Z,2.58
2017-08-20T10:11:49.549Z,3.50
2017-08-20T10:14:17.308Z,2.85
2017-08-20T10:16:45.174Z,2.55
2017-08-20T10:19:13.041Z,2.00
2017-08-20T10:21:40.901Z,2.00
2017-08-20T10:24:08.765Z,2.08
2017-08-20T10:26:36.628Z,2.30
2017-08-20T10:29:04.492Z,2.08
2017-08-20T10:31:32.256Z,2.62
2017-08-20T10:34:00.117Z,1.62
2017-08-20T10:36:27.982Z,2.42
2017-08-20T10:38:55.703Z,2.00
2017-08-20T10:41:23.504Z,2.80
2017-08-20T10:43:51.369Z,2.40
2017-08-20T10:46:19.232Z,2.67
2017-08-20T10:48:47.010Z,2.15
2017-08-20T10:51:14.755Z,2.20
2017-08-20T10:53:42.516Z,2.10
2017-08-20T10:56:10.382Z,3.10
2017-08-20T10:58:38.109Z,2.75
2017-08-20T11:01:06.005Z,1.95
2017-08-20T11:03:33.725Z,1.98
2017-08-20T11:06:01.534Z,1.55
2017-08-20T11:08:29.393Z,2.42
2017-08-20T11:10:57.214Z,2.08
2017-08-20T11:13:25.119Z,2.35
2017-08-20T11:15:52.881Z,1.90
2017-08-20T11:18:20.747Z,2.75
2017-08-20T11:20:48.613Z,2.15
2017-08-20T11:23:16.482Z,2.70
2017-08-20T11:25:44.338Z,2.30
2017-08-20T11:28:12.202Z,2.42
2017-08-20T11:30:40.066Z,2.72
2017-08-20T11:33:07.929Z,3.50
2017-08-20T11:35:35.793Z,2.87
2017-08-20T11:38:03.656Z,1.98
2017-08-20T11:40:31.519Z,2.37
2017-08-20T11:42:59.385Z,1.52
2017-08-20T11:45:28.579Z,1.83
2017-08-20T11:47:56.445Z,1.90
2017-08-20T11:50:24.309Z,2.60
2017-08-20T11:52:52.069Z,1.98
2017-08-20T11:55:19.933Z,2.08
2017-08-20T11:57:47.804Z,3.42
2017-08-20T12:00:15.558Z,1.80
2017-08-20T12:02:43.421Z,3.03
2017-08-20T12:05:11.285Z,1.95
2017-08-20T12:07:39.661Z,3.10
2017-08-20T12:10:07.525Z,2.53
2017-08-20T12:12:35.389Z,1.83
2017-08-20T12:15:03.253Z,2.90
2017-08-20T12:17:31.131Z,3.03
2017-08-20T12:19:58.954Z,1.83
2017-08-20T12:22:26.951Z,1.90
2017-08-20T12:24:54.812Z,2.20
2017-08-20T12:27:22.674Z,2.85
2017-08-20T12:29:50.539Z,2.83
2017-08-20T12:32:18.402Z,3.35
2017-08-20T12:34:46.165Z,2.33
2017-08-20T12:37:13.891Z,2.40
2017-08-20T12:39:41.667Z,1.70
2017-08-20T12:42:09.389Z,1.80
2017-08-20T12:44:37.109Z,2.10
2017-08-20T12:47:04.862Z,1.80
2017-08-20T12:49:32.629Z,2.03
2017-08-20T12:52:00.495Z,2.70
2017-08-20T12:54:28.337Z,1.55
2017-08-20T12:56:56.119Z,1.77
2017-08-20T12:59:23.879Z,1.67
2017-08-20T13:01:51.603Z,1.65
2017-08-20T13:04:19.507Z,1.98
2017-08-20T13:06:47.370Z,1.75
2017-08-20T13:09:15.232Z,2.42
2017-08-20T13:11:43.098Z,1.60
2017-08-20T13:14:10.926Z,1.40
2017-08-20T13:16:38.760Z,1.80
2017-08-20T13:19:07.303Z,2.10
2017-08-20T13:21:35.168Z,2.72
2017-08-20T13:24:02.997Z,1.37
2017-08-20T13:26:30.795Z,1.50
2017-08-20T13:28:58.663Z,2.03
2017-08-20T13:31:26.522Z,1.87
2017-08-20T13:33:54.384Z,1.85
2017-08-20T13:36:22.248Z,1.90
2017-08-20T13:38:50.112Z,1.87
2017-08-20T13:41:17.976Z,1.60
2017-08-20T13:43:45.840Z,1.90
2017-08-20T13:46:13.558Z,1.60
2017-08-20T13:48:41.302Z,2.10
2017-08-20T13:51:09.841Z,1.70
2017-08-20T13:53:37.617Z,1.98
2017-08-20T13:56:05.336Z,1.52
2017-08-20T13:58:33.118Z,1.60
2017-08-20T14:01:00.866Z,2.10
2017-08-20T14:03:28.581Z,1.90
2017-08-20T14:05:56.614Z,2.00
2017-08-20T14:08:24.479Z,1.85
2017-08-20T14:10:52.200Z,1.92
2017-08-20T14:13:20.002Z,2.03
2017-08-20T14:15:47.728Z,1.58
2017-08-20T14:18:15.499Z,1.80
2017-08-20T14:20:43.218Z,2.15
2017-08-20T14:23:11.765Z,2.10
2017-08-20T14:25:39.632Z,2.00
2017-08-20T14:28:07.492Z,2.60
2017-08-20T14:30:35.360Z,1.52
2017-08-20T14:33:03.093Z,2.12
2017-08-20T14:35:30.855Z,1.87
2017-08-20T14:37:58.749Z,2.28
2017-08-20T14:40:26.606Z,1.67
2017-08-20T14:42:54.391Z,1.95
2017-08-20T14:45:22.899Z,1.77
2017-08-20T14:47:50.710Z,2.20
2017-08-20T14:50:18.574Z,2.03
2017-08-20T14:52:46.437Z,1.92
2017-08-20T14:55:14.301Z,2.20
2017-08-20T14:57:42.022Z,2.55
2017-08-20T15:00:09.827Z,2.70
2017-08-20T15:02:37.696Z,2.10
2017-08-20T15:05:05.423Z,1.73
2017-08-20T15:07:33.314Z,2.20
2017-08-20T15:10:01.178Z,2.10
2017-08-20T15:12:29.045Z,2.50
2017-08-20T15:14:56.873Z,2.33
2017-08-20T15:17:24.594Z,2.30
2017-08-20T15:19:53.249Z,2.60
2017-08-20T15:22:20.971Z,2.78
2017-08-20T15:24:48.770Z,2.53
2017-08-20T15:27:16.637Z,3.05
2017-08-20T15:29:44.497Z,2.35
2017-08-20T15:32:12.362Z,3.25
2017-08-20T15:34:40.123Z,2.58
2017-08-20T15:37:07.842Z,2.30
2017-08-20T15:39:35.750Z,2.95
2017-08-20T15:42:03.613Z,3.20
2017-08-20T15:44:31.478Z,3.17
2017-08-20T15:46:59.342Z,4.32
2017-08-20T15:49:27.204Z,3.30
2017-08-20T15:51:55.069Z,2.55
2017-08-20T15:54:22.933Z,2.10
2017-08-20T15:56:50.796Z,2.70
2017-08-20T15:59:18.660Z,2.03
2017-08-20T16:01:46.524Z,3.00
2017-08-20T16:04:14.276Z,2.37
2017-08-20T16:06:42.046Z,2.33
2017-08-20T16:09:09.911Z,3.08
2017-08-20T16:11:37.775Z,2.65
2017-08-20T16:14:05.493Z,2.70
2017-08-20T16:16:33.297Z,2.40
2017-08-20T16:19:01.059Z,2.25
2017-08-20T16:21:28.924Z,1.87
2017-08-20T16:23:56.786Z,2.50
2017-08-20T16:26:24.548Z,3.05
2017-08-20T16:28:52.415Z,2.42
2017-08-20T16:31:20.279Z,2.00
2017-08-20T16:33:48.058Z,3.30
2017-08-20T16:36:15.902Z,1.95
2017-08-20T16:38:43.764Z,1.83
2017-08-20T16:41:11.631Z,2.10
2017-08-20T16:43:39.498Z,2.50
2017-08-20T16:46:07.358Z,2.40
2017-08-20T16:48:35.221Z,2.00
2017-08-20T16:51:03.084Z,2.10
2017-08-20T16:53:30.830Z,2.40
2017-08-20T16:55:58.555Z,1.60
2017-08-20T16:58:26.330Z,2.42
2017-08-20T17:00:54.153Z,1.95
2017-08-20T17:03:22.714Z,2.60
2017-08-20T17:05:50.576Z,2.05
2017-08-20T17:08:18.440Z,2.00
2017-08-20T17:10:46.304Z,2.30
2017-08-20T17:13:14.166Z,2.10
2017-08-20T17:15:42.030Z,2.30
2017-08-20T17:18:09.902Z,3.00
2017-08-20T17:20:37.760Z,2.70
2017-08-20T17:23:05.534Z,2.50
2017-08-20T17:25:33.384Z,2.75
2017-08-20T17:28:01.248Z,2.17
2017-08-20T17:30:29.113Z,2.87
2017-08-20T17:32:56.876Z,2.20
2017-08-20T17:35:24.737Z,2.60
2017-08-20T17:37:52.471Z,2.20
2017-08-20T17:40:20.206Z,2.40
2017-08-20T17:42:48.023Z,2.42
2017-08-20T17:45:15.884Z,2.55
2017-08-20T17:47:43.749Z,3.10
2017-08-20T17:50:11.472Z,3.62
2017-08-20T17:52:39.272Z,3.35
2017-08-20T17:55:07.136Z,2.78
2017-08-20T17:57:34.999Z,2.70
2017-08-20T18:00:02.862Z,2.58
2017-08-20T18:02:30.728Z,2.50
2017-08-20T18:04:58.591Z,2.92
2017-08-20T18:07:26.456Z,4.18
2017-08-20T18:09:54.177Z,3.55
2017-08-20T18:12:22.081Z,2.97
2017-08-20T18:14:49.944Z,3.42
2017-08-20T18:17:17.807Z,3.25
2017-08-20T18:19:45.559Z,3.15
2017-08-20T18:22:13.282Z,3.75
2017-08-20T18:24:41.058Z,4.20
2017-08-20T18:27:08.854Z,3.72
2017-08-20T18:29:36.679Z,3.90
2017-08-20T18:32:04.480Z,4.28
2017-08-20T18:34:32.344Z,3.92
2017-08-20T18:37:00.209Z,3.90
2017-08-20T18:39:28.070Z,5.95
2017-08-20T18:41:55.937Z,5.20
2017-08-20T18:44:23.798Z,4.10
2017-08-20T18:46:51.546Z,4.00
2017-08-20T18:49:19.427Z,3.60
2017-08-20T18:51:47.289Z,3.50
2017-08-20T18:54:15.049Z,4.05
2017-08-20T18:56:42.913Z,3.92
2017-08-20T18:59:11.596Z,5.25
2017-08-20T19:01:39.459Z,4.18
2017-08-20T19:04:07.324Z,5.65
2017-08-20T19:06:35.085Z,3.90
2017-08-20T19:09:02.846Z,4.12
2017-08-20T19:11:30.713Z,3.37
2017-08-20T19:13:58.507Z,3.58
2017-08-20T19:16:27.054Z,2.97
2017-08-20T19:18:54.813Z,3.60
2017-08-20T19:21:22.679Z,4.55
2017-08-20T19:23:50.545Z,4.30
2017-08-20T19:26:18.407Z,4.32
2017-08-20T19:28:46.270Z,3.87
2017-08-20T19:31:14.133Z,3.97
2017-08-20T19:33:41.999Z,3.33
2017-08-20T19:36:09.864Z,4.18
2017-08-20T19:38:37.728Z,4.55
2017-08-20T19:41:06.251Z,2.47
2017-08-20T19:43:34.067Z,3.47
2017-08-20T19:46:01.931Z,3.40
2017-08-20T19:48:29.794Z,3.37
2017-08-20T19:50:58.377Z,3.00
2017-08-20T19:53:26.240Z,3.42
2017-08-20T19:55:55.332Z,3.05
2017-08-20T19:58:23.196Z,2.92
2017-08-20T20:00:51.061Z,2.47
2017-08-20T20:03:18.926Z,3.25
2017-08-20T20:05:46.788Z,3.28
2017-08-20T20:08:14.655Z,2.83
2017-08-20T20:10:42.515Z,3.30
2017-08-20T20:13:10.382Z,3.78
2017-08-20T20:15:38.243Z,3.70
2017-08-20T20:18:06.111Z,3.58
2017-08-20T20:20:37.809Z,3.50
2017-08-20T20:23:06.461Z,3.87
2017-08-20T20:25:34.307Z,3.65
2017-08-20T20:28:02.274Z,4.28
2017-08-20T20:30:30.137Z,3.50
2017-08-20T20:32:58.004Z,3.05
2017-08-20T20:35:25.873Z,3.60
2017-08-20T20:37:54.963Z,3.92
2017-08-20T20:40:23.030Z,4.72
2017-08-20T20:42:50.889Z,3.75
2017-08-20T20:45:18.754Z,4.55
2017-08-20T20:47:46.683Z,4.60
2017-08-20T20:50:14.481Z,4.97
2017-08-20T20:52:42.345Z,4.00
2017-08-20T20:55:10.210Z,4.40
2017-08-20T20:57:38.178Z,3.85
2017-08-20T21:00:06.144Z,4.10
2017-08-20T21:02:34.006Z,4.35
2017-08-20T21:05:01.871Z,3.40
2017-08-20T21:07:30.558Z,3.60
2017-08-20T21:09:58.420Z,4.20
2017-08-20T21:12:26.279Z,3.40
2017-08-20T21:14:54.146Z,3.70
2017-08-20T21:17:22.008Z,3.75
2017-08-20T21:19:49.872Z,3.85
2017-08-20T21:22:17.737Z,3.35
2017-08-20T21:24:45.599Z,3.62
2017-08-20T21:27:13.980Z,4.05
2017-08-20T21:29:41.840Z,3.60
2017-08-20T21:32:10.016Z,3.17
2017-08-20T21:34:37.875Z,4.15
2017-08-20T21:37:05.739Z,3.50
2017-08-20T21:39:33.605Z,4.43
2017-08-20T21:42:01.672Z,4.45
2017-08-20T21:44:29.536Z,4.35
2017-08-20T21:46:58.030Z,4.62
2017-08-20T21:49:26.696Z,4.78
2017-08-20T21:51:54.458Z,4.37
2017-08-20T21:54:22.321Z,4.45
2017-08-20T21:56:50.294Z,4.30
2017-08-20T21:59:18.157Z,3.75
2017-08-20T22:01:46.637Z,4.55
2017-08-20T22:04:14.499Z,4.45
2017-08-20T22:06:42.357Z,4.50
2017-08-20T22:09:10.220Z,4.25
2017-08-20T22:11:38.084Z,5.10
2017-08-20T22:14:05.958Z,3.97
2017-08-20T22:16:34.533Z,4.03
2017-08-20T22:19:02.393Z,3.85
2017-08-20T22:21:30.462Z,4.50
2017-08-20T22:23:58.326Z,3.83
2017-08-20T22:26:26.394Z,4.00
2017-08-20T22:28:54.259Z,4.30
2017-08-20T22:31:23.044Z,3.78
2017-08-20T22:33:50.907Z,4.82
2017-08-20T22:36:18.976Z,4.00
2017-08-20T22:38:46.841Z,4.50
2017-08-20T22:41:14.703Z,3.78
2017-08-20T22:43:42.570Z,3.58
2017-08-20T22:46:10.437Z,3.42
2017-08-20T22:48:38.295Z,3.92
2017-08-20T22:51:06.071Z,3.70
2017-08-20T22:53:33.819Z,4.15
2017-08-20T22:56:01.683Z,3.92
2017-08-20T22:58:29.545Z,3.58
2017-08-20T23:00:57.411Z,3.00
2017-08-20T23:03:25.274Z,4.37
2017-08-20T23:05:53.137Z,3.62
2017-08-20T23:08:21.001Z,4.05
2017-08-20T23:10:48.865Z,3.72
2017-08-20T23:13:16.730Z,3.60
2017-08-20T23:15:44.593Z,3.42
2017-08-20T23:18:12.458Z,2.72
2017-08-20T23:20:40.323Z,3.03
2017-08-20T23:23:08.185Z,3.20
2017-08-20T23:25:35.908Z,2.95
2017-08-20T23:28:03.810Z,3.90
2017-08-20T23:30:31.674Z,3.50
2017-08-20T23:32:59.537Z,3.55
2017-08-20T23:35:27.404Z,3.25
2017-08-20T23:37:55.265Z,3.53
2017-08-20T23:40:23.128Z,4.12
2017-08-20T23:42:50.993Z,3.35
2017-08-20T23:45:18.860Z,4.28
2017-08-20T23:47:46.721Z,3.35
2017-08-20T23:50:14.585Z,2.65
2017-08-20T23:52:42.449Z,3.35
2017-08-20T23:55:10.322Z,3.33
2017-08-20T23:57:38.193Z,3.00
